Moapa Valley, Nevada Weather observations

Data are for 10 minute period ending at time listed.
 Day   Time   Solar   Ave.   Ave.  Ave.  Vector  Max.   Baro.   Total    
  of    of     Rad.   Air    Rel.  Wind   Wind   Wind  Press.  Precip.   
Year   Day            Temp.  Hum.  Speed  Dir.   Gust                    
2016   (PST)  Kw/m2    F      %     mph   deg.    mph    mb.     in.     
-------------------------------------------------------------------------
 121   15:20   0.36   66.5    62    2.8   153     5.3   960.5    0.00 
 121   15:30   0.27   65.0    61    6.4   127    12.8   960.7    0.00 
 121   15:40   0.21   62.6    67    9.2   124    14.6   960.9    0.00 
 121   15:50   0.20   61.2    73    9.9   122    14.9   961.0    0.00 
 121   16:00   0.18   60.4    74    8.9   130    14.6   961.1    0.00 
 121   16:10   0.16   60.5    75    7.2   141    11.3   961.3    0.00 
 121   16:20   0.12   60.5    72    6.7   144    10.6   961.4    0.00 
 121   16:30   0.10   60.4    73    6.2   120     9.9   961.7    0.00 
 121   16:40   0.11   59.9    73    7.7   119    11.7   961.9    0.00 
 121   16:50   0.14   59.8    73    5.0   135     8.5   962.0    0.00 
 121   17:00   0.13   59.8    74    3.9   141     8.5   961.9    0.00 
 121   17:10   0.11   59.6    74    3.4   143     5.6   961.8    0.00 
 121   17:20   0.10   59.3    76    3.3   164     6.0   961.7    0.00 
 121   17:30   0.09   59.0    78    1.9   150     3.5   961.5    0.00 
 121   17:40   0.07   59.1    78    0.4    92     1.7   961.4    0.00 
 121   17:50   0.05   58.8    81    2.1    47     3.1   961.3    0.00 
 121   18:00   0.03   58.3    82    2.6    59     3.8   961.4    0.00 
 121   18:10   0.02   58.0    83    2.4    36     3.5   961.4    0.00 
 121   18:20   0.01   57.4    84    2.3    14     3.1   961.6    0.00 
 121   18:30   0.01   57.2    84    2.4   351     3.1   961.9    0.00 
 121   18:40   0.00   57.3    83    2.0   283     3.5   962.0    0.00 
 121   18:50   0.00   56.9    86    2.5   187     3.5   962.1    0.00 
 121   19:00   0.00   56.4    88    1.1   306     2.4   962.3    0.00 
 121   19:10   0.00   56.3    89    2.0    99     3.1   962.7    0.00 
 121   19:20   0.00   55.9    90    1.6   130     2.8   963.0    0.00 
 121   19:30   0.00   55.2    91    2.1   230     3.8   962.8    0.00 
 121   19:40   0.00   55.7    90    2.1   277     3.1   962.9    0.00 
 121   19:50   0.00   56.1    90    2.8   283     3.5   963.0    0.00 
 121   20:00   0.00   56.7    88    2.0   284     3.1   963.1    0.00 
 121   20:10   0.00   56.8    88    1.0    98     1.7   963.2    0.00 
 121   20:20   0.00   56.4    91    1.7   101     2.8   963.4    0.00 
 121   20:30   0.00   56.3    90    1.4    97     3.1   963.4    0.00 
 121   20:40   0.00   56.0    90    0.0     0     0.0   963.2    0.00 
 121   20:50   0.00   55.4    91    0.2   320     1.3   963.2    0.00 
 121   21:00   0.00   55.1    93    0.7   327     2.4   963.2    0.00 
 121   21:10   0.00   54.7    93    2.6   308     3.1   963.2    0.00 
 121   21:20   0.00   55.1    94    2.7   304     3.5   963.0    0.00 
 121   21:30   0.00   55.7    93    2.5   308     3.5   963.0    0.00 
 121   21:40   0.00   55.9    91    2.7   339     4.6   963.0    0.00 
 121   21:50   0.00   56.6    88    3.5   336     6.0   963.0    0.00 
 121   22:00   0.00   56.9    86    3.5   327     4.9   963.1    0.00 
 121   22:10   0.00   57.0    84    2.9   307     5.3   963.1    0.00 
 121   22:20   0.00   56.5    85    2.2    30     4.2   963.2    0.00 
 121   22:30   0.00   56.0    86    1.4    60     2.8   963.2    0.00 
 121   22:40   0.00   54.2    89    3.0   310     3.8   962.9    0.00 
 121   22:50   0.00   53.9    90    2.9   332     3.8   963.0    0.00 
 121   23:00   0.00   53.5    91    2.5   316     3.1   962.9    0.00 
 121   23:10   0.00   53.3    91    0.9    12     2.4   963.0    0.00 
 121   23:20   0.00   52.4    92    1.9   192     3.1   963.0    0.00 
 121   23:30   0.00   51.9    94    1.0   103     2.1   963.2    0.00 
 121   23:40   0.00   51.9    94    1.8   302     4.2   963.2    0.00 
 121   23:50   0.00   51.9    94    1.8   345     4.9   963.3    0.00 
 122    0:00   0.00   52.6    94    2.4   328     3.8   963.2    0.00 
 122    0:10   0.00   54.7    90    3.0   300     3.5   963.1    0.00 
 122    0:20   0.00   54.9    90    2.1   300     3.1   963.0    0.00 
 122    0:30   0.00   55.2    89    1.7   328     3.8   963.0    0.00 
 122    0:40   0.00   55.3    87    1.9     9     4.2   962.9    0.00 
 122    0:50   0.00   55.9    83    2.6   335     4.6   962.8    0.00 
 122    1:00   0.00   56.4    83    4.3   294     7.1   962.9    0.00 
 122    1:10   0.00   56.0    85    3.8   267     4.9   963.0    0.00 
 122    1:20   0.00   55.9    86    3.5   276     4.6   963.0    0.00 
 122    1:30   0.00   55.7    86    3.8   281     6.3   963.0    0.00 
 122    1:40   0.00   55.6    86    2.2   330     4.2   963.0    0.00 
 122    1:50   0.00   55.4    86    2.3   300     3.5   963.0    0.00 
 122    2:00   0.00   55.4    86    2.2   275     3.1   963.0    0.00 
 122    2:10   0.00   54.9    88    2.3   307     3.5   963.1    0.00 
 122    2:20   0.00   55.2    87    3.3   309     4.6   963.2    0.00 
 122    2:30   0.00   55.5    86    3.5   315     5.3   963.2    0.00 
 122    2:40   0.00   55.5    85    2.9   327     3.8   963.3    0.00 
 122    2:50   0.00   55.1    86    2.3   316     3.5   963.4    0.00 
 122    3:00   0.00   54.9    86    1.8   301     2.8   963.4    0.00 
 122    3:10   0.00   54.5    86    3.3   287     4.6   963.5    0.00 
 122    3:20   0.00   53.6    87    2.7   303     4.2   963.4    0.00 
 122    3:30   0.00   53.1    88    1.5   356     2.4   963.6    0.00 
 122    3:40   0.00   53.0    89    2.3   288     3.8   963.6    0.00 
 122    3:50   0.00   53.2    88    2.8   264     4.2   963.6    0.00 
 122    4:00   0.00   53.3    87    1.8   298     3.1   963.6    0.00 
 122    4:10   0.00   53.2    88    2.0   358     3.8   963.6    0.00 
 122    4:20   0.00   52.6    88    1.9   317     2.8   963.6    0.00 
 122    4:30   0.00   52.4    87    0.9   304     1.7   963.7    0.00 
 122    4:40   0.00   51.4    89    0.6   262     1.3   963.8    0.00 
 122    4:50   0.01   51.1    89    1.0   209     2.4   963.9    0.00 
 122    5:00   0.01   50.8    89    1.0   234     3.1   964.0    0.00 
 122    5:10   0.04   52.0    86    2.6   287     4.2   964.0    0.00 
 122    5:20   0.08   53.7    83    2.2   346     4.6   964.2    0.00 
 122    5:30   0.11   55.2    80    2.5   289     3.8   964.3    0.00 
 122    5:40   0.14   56.6    79    1.6   257     2.8   964.4    0.00 
 122    5:50   0.18   58.2    78    1.0   198     2.1   964.5    0.00 
 122    6:00   0.22   58.8    79    1.0   149     2.1   964.6    0.00 
 122    6:10   0.26   60.3    73    1.2   316     3.5   964.7    0.00 
 122    6:20   0.30   61.0    67    3.5   333     4.9   964.8    0.00 
 122    6:30   0.32   61.6    66    3.8   328     5.3   964.8    0.00 
 122    6:40   0.33   61.9    66    3.1   334     4.6   964.9    0.00 
 122    6:50   0.37   63.1    62    3.0   334     4.9   964.9    0.00 
 122    7:00   0.41   64.0    57    4.2   317     6.3   965.0    0.00 
 122    7:10   0.46   64.8    56    4.2   310     5.6   965.0    0.00 
 122    7:20   0.52   65.2    55    5.0   318     7.8   965.0    0.00 
 122    7:30   0.58   65.3    54    5.9   304     9.6   965.1    0.00 
 122    7:40   0.62   65.6    52    6.7   298    10.3   965.2    0.00 
 122    7:50   0.62   65.9    52    5.3   320     7.8   965.2    0.00 
 122    8:00   0.69   66.9    50    5.5   296     8.1   965.2    0.00 
 122    8:10   0.74   67.6    50    5.3   299     7.8   965.2    0.00 
 122    8:20   0.78   68.3    47    4.2   304     7.8   965.2    0.00 
 122    8:30   0.82   70.0    42    2.6   294     6.0   965.3    0.00 
 122    8:40   0.85   69.9    41    3.8   290     7.8   965.3    0.00 
 122    8:50   0.87   70.6    38    4.6   263     7.4   965.3    0.00 
 122    9:00   0.91   70.8    41    3.5   305     6.0   965.5    0.00 
 122    9:10   0.94   70.7    37    4.8    16    10.3   965.5    0.00 
 122    9:20   0.96   70.8    34    6.0    38     9.6   965.5    0.00 
 122    9:30   1.00   71.0    34    7.7    35    12.8   965.5    0.00 
 122    9:40   1.02   71.0    34    7.4    33    11.3   965.6    0.00 
 122    9:50   1.05   71.5    34    6.5    43    13.1   965.6    0.00 
 122   10:00   1.07   72.1    33    5.9    50    10.6   965.5    0.00 
 122   10:10   1.09   72.2    34    5.3   360     9.6   965.5    0.00 
 122   10:20   1.11   72.8    33    4.9    47     8.1   965.5    0.00 
 122   10:30   1.12   73.3    34    4.6    17     9.6   965.3    0.00 
 122   10:40   1.13   73.3    32    4.4    53     8.1   965.3    0.00 
 122   10:50   1.14   73.5    33    6.1   343     9.2   965.2    0.00 
 122   11:00   1.15   73.8    32    6.8    12    12.4   965.2    0.00 
 122   11:10   1.16   74.1    31    5.6    28    11.0   965.1    0.00 
 122   11:20   1.16   73.9    32    6.3    20    11.7   965.0    0.00 
 122   11:30   1.17   74.5    32    4.2    76     8.5   965.0    0.00 
 122   11:40   1.17   74.5    32    6.6    23    12.4   965.0    0.00 
 122   11:50   1.17   74.7    31    5.2    19    12.4   964.9    0.00 
 122   12:00   1.16   74.9    31    5.9   355    11.0   964.8    0.00 
 122   12:10   1.16   75.1    30    4.8   327    10.3   964.8    0.00 
 122   12:20   1.12   75.9    30    3.9   354     7.8   964.7    0.00 
 122   12:30   1.13   76.2    31    4.4   343     8.8   964.8    0.00 
 122   12:40   1.10   76.4    30    4.5    22     9.2   964.7    0.00 
 122   12:50   1.11   76.3    32    5.8     5    12.1   964.7    0.00 
 122   13:00   1.10   75.9    30    6.5    23    12.1   964.7    0.00 
 122   13:10   1.08   76.2    32    4.4    14     8.5   964.7    0.00 
 122   13:20   1.06   76.3    30    3.5   123     6.0   964.7    0.00 
 122   13:30   1.04   76.7    31    6.3    11    11.3   964.7    0.00 
 122   13:40   1.01   76.4    30    6.0   332    10.3   964.6    0.00 
 122   13:50   0.99   77.1    28    3.4   328     7.1   964.6    0.00 
 122   14:00   0.97   78.0    27    2.7    38     6.0   964.5    0.00 
 122   14:10   0.94   78.1    29    4.0     6     6.7   964.5    0.00 
 122   14:20   0.92   77.6    23    3.1    26     6.7   964.4    0.00 
 122   14:30   0.90   79.2    28    2.1   184     4.9   964.3    0.00 
 122   14:40   0.88   79.5    27    3.8   262     8.5   964.3    0.00 
 122   14:50   0.82   78.6    26    4.6   281     9.2   964.3    0.00 
 122   15:00   0.78   78.5    26    4.9   272     8.8   964.2    0.00 
 122   15:10   0.75   78.2    26    3.4   312     6.7   964.2    0.00 

Return to Moapa Valley graphs page.


Western Regional Climate Center,wrcc@dri.edu